Time;durP1;ratioP1;P1;durP2;ratioP2;P2;SDS_P1;SDS_P2;PMS_P1;PMS_P2;Temp;Humidity;BMP_temperature;BMP_pressure;BME280_temperature;BME280_humidity;BME280_pressure;Samples;Min_cycle;Max_cycle;Signal;HPM_P1;HPM_P2
2023/08/20 00:01:41;;;;;;;10.07;7.57;;;;;;;27.63;100.00;96534.91;5006446;28;20029;-87
2023/08/20 00:04:08;;;;;;;10.55;8.30;;;;;;;27.61;100.00;96537.09;5001010;28;20042;-89
2023/08/20 00:06:34;;;;;;;10.60;7.93;;;;;;;27.61;100.00;96537.09;5027175;28;20032;-88
2023/08/20 00:09:00;;;;;;;12.13;8.45;;;;;;;27.41;100.00;96545.84;5012381;28;20111;-88
2023/08/20 00:11:25;;;;;;;13.80;8.70;;;;;;;27.56;100.00;96540.56;5011232;28;20036;-87
2023/08/20 00:13:51;;;;;;;12.38;8.27;;;;;;;27.60;100.00;96543.53;5008091;28;20049;-88
2023/08/20 00:16:16;;;;;;;13.48;8.20;;;;;;;27.53;100.00;96540.25;5023637;28;20025;-88
2023/08/20 00:18:42;;;;;;;11.13;8.07;;;;;;;27.25;100.00;96542.22;5007791;28;20095;-88
2023/08/20 00:21:08;;;;;;;13.93;8.02;;;;;;;27.27;100.00;96546.28;5026316;28;20127;-88
2023/08/20 00:23:35;;;;;;;12.55;8.20;;;;;;;27.03;100.00;96553.91;5008802;28;20033;-88
2023/08/20 00:26:02;;;;;;;10.07;7.80;;;;;;;27.47;100.00;96542.13;5015287;28;20468;-88
2023/08/20 00:28:28;;;;;;;12.02;7.60;;;;;;;27.33;100.00;96554.41;5026692;28;20033;-88
2023/08/20 00:30:53;;;;;;;11.25;8.70;;;;;;;27.34;100.00;96556.06;5014677;28;20036;-88
2023/08/20 00:33:19;;;;;;;13.38;9.07;;;;;;;27.27;100.00;96553.59;5020260;28;20036;-88
2023/08/20 00:35:44;;;;;;;11.48;7.85;;;;;;;27.06;100.00;96552.53;5013217;28;20403;-88
2023/08/20 00:38:10;;;;;;;11.50;8.02;;;;;;;27.17;100.00;96553.50;5014543;28;20060;-87
2023/08/20 00:40:35;;;;;;;13.52;8.77;;;;;;;27.24;100.00;96554.91;5014085;28;20065;-88
2023/08/20 00:43:01;;;;;;;11.18;8.27;;;;;;;27.17;100.00;96558.91;5027216;28;20084;-88
2023/08/20 00:45:27;;;;;;;15.63;8.32;;;;;;;27.08;100.00;96561.22;5027979;28;20136;-88
2023/08/20 00:47:53;;;;;;;11.27;8.25;;;;;;;27.14;100.00;96568.31;5007292;28;20034;-88
2023/08/20 00:50:19;;;;;;;9.43;7.80;;;;;;;27.17;100.00;96565.13;5019731;28;20083;-87
2023/08/20 00:52:46;;;;;;;12.88;8.15;;;;;;;27.37;100.00;96559.06;5011599;28;20030;-88
2023/08/20 00:55:13;;;;;;;12.50;8.75;;;;;;;27.07;100.00;96561.47;5010613;28;20121;-88
2023/08/20 00:57:39;;;;;;;10.30;8.88;;;;;;;27.03;100.00;96559.28;5039952;28;20072;-88
2023/08/20 01:00:10;;;;;;;12.05;8.80;;;;;;;27.35;100.00;96558.50;5019882;28;20551;-88
2023/08/20 01:02:37;;;;;;;10.52;8.65;;;;;;;27.12;100.00;96565.03;5011222;28;20039;-88
2023/08/20 01:05:07;;;;;;;11.75;8.48;;;;;;;27.04;100.00;96565.50;5026980;28;20121;-88
2023/08/20 01:07:57;;;;;;;12.40;8.05;;;;;;;26.90;100.00;96570.50;5013104;28;20499;-88
2023/08/20 01:10:23;;;;;;;13.43;8.32;;;;;;;26.92;100.00;96567.53;5012691;28;20022;-88
2023/08/20 01:12:51;;;;;;;10.38;8.32;;;;;;;27.12;100.00;96569.63;5029517;28;20024;-88
2023/08/20 01:15:16;;;;;;;13.93;8.93;;;;;;;27.07;100.00;96574.97;5013435;28;20037;-88
2023/08/20 01:17:45;;;;;;;11.43;8.57;;;;;;;27.12;100.00;96561.50;5012455;28;20018;-88
2023/08/20 01:20:13;;;;;;;12.80;9.30;;;;;;;26.89;100.00;96560.75;5029508;28;20025;-87
2023/08/20 01:23:01;;;;;;;11.32;8.98;;;;;;;26.92;100.00;96565.66;5026323;28;20041;-88
2023/08/20 01:26:06;;;;;;;13.88;8.05;;;;;;;26.92;100.00;96562.94;5008412;28;20412;-88
2023/08/20 01:28:32;;;;;;;13.02;8.98;;;;;;;26.93;100.00;96563.78;5025911;28;20448;-88
2023/08/20 01:31:00;;;;;;;13.50;8.57;;;;;;;27.11;100.00;96571.50;5028596;28;20068;-88
2023/08/20 01:33:26;;;;;;;11.18;8.27;;;;;;;27.01;100.00;96577.63;5014549;28;20025;-88
2023/08/20 01:35:53;;;;;;;12.15;8.85;;;;;;;27.20;100.00;96569.19;5025039;28;20080;-88
2023/08/20 01:38:19;;;;;;;9.50;7.85;;;;;;;27.09;100.00;96575.53;5014841;28;20026;-88
2023/08/20 01:40:45;;;;;;;13.30;7.82;;;;;;;26.98;100.00;96577.31;4991894;28;20036;-88
2023/08/20 01:43:10;;;;;;;11.85;8.43;;;;;;;27.11;100.00;96573.38;4994713;28;20048;-88
2023/08/20 01:45:37;;;;;;;11.65;8.55;;;;;;;27.28;100.00;96574.09;4993842;28;20034;-88
2023/08/20 01:48:05;;;;;;;9.60;8.05;;;;;;;27.20;100.00;96577.28;4993140;28;20034;-88
2023/08/20 01:50:31;;;;;;;12.23;8.65;;;;;;;27.28;100.00;96579.50;4998584;28;20159;-88
2023/08/20 01:52:57;;;;;;;11.93;8.32;;;;;;;27.17;100.00;96575.09;4992621;28;20029;-88
2023/08/20 01:55:22;;;;;;;10.27;7.40;;;;;;;27.30;100.00;96569.28;5001590;28;20037;-88
2023/08/20 01:57:48;;;;;;;10.40;7.72;;;;;;;27.20;100.00;96583.50;4994376;28;20032;-87
2023/08/20 02:00:14;;;;;;;10.57;8.93;;;;;;;26.94;100.00;96582.41;4993378;28;20033;-88
2023/08/20 02:02:40;;;;;;;10.95;9.00;;;;;;;27.07;100.00;96583.06;5012227;28;20068;-88
2023/08/20 02:05:05;;;;;;;11.07;8.30;;;;;;;27.09;100.00;96589.03;4995254;28;20026;-87
2023/08/20 02:07:31;;;;;;;11.93;9.65;;;;;;;26.77;100.00;96584.41;5017546;28;20037;-88
2023/08/20 02:09:58;;;;;;;11.52;8.90;;;;;;;26.62;100.00;96586.91;4995599;28;20026;-88
2023/08/20 02:12:25;;;;;;;15.35;9.25;;;;;;;26.50;100.00;96584.38;5010932;28;20061;-88
2023/08/20 02:14:51;;;;;;;12.90;9.00;;;;;;;26.55;100.00;96584.41;4997327;28;20028;-88
2023/08/20 02:17:21;;;;;;;15.27;9.27;;;;;;;26.48;100.00;96586.47;5000164;28;20025;-89
2023/08/20 02:19:47;;;;;;;11.27;9.10;;;;;;;26.64;100.00;96582.91;4996846;28;20058;-88
2023/08/20 02:22:13;;;;;;;12.57;8.98;;;;;;;26.45;100.00;96586.97;5000362;28;20044;-89
2023/08/20 02:24:38;;;;;;;14.98;9.60;;;;;;;26.36;100.00;96586.59;5013747;28;20037;-88
2023/08/20 02:27:04;;;;;;;13.45;8.68;;;;;;;26.34;100.00;96594.91;4999330;28;20061;-88
2023/08/20 02:29:30;;;;;;;11.15;8.98;;;;;;;26.63;100.00;96593.97;5018990;28;20037;-88
2023/08/20 02:31:55;;;;;;;10.40;8.90;;;;;;;26.55;100.00;96593.31;4998274;28;20036;-88
2023/08/20 02:34:22;;;;;;;10.63;9.13;;;;;;;26.26;100.00;96589.16;5018705;28;20041;-88
2023/08/20 02:36:48;;;;;;;17.13;9.43;;;;;;;26.18;100.00;96592.28;5001552;28;20026;-88
2023/08/20 02:39:14;;;;;;;17.08;9.00;;;;;;;26.29;100.00;96585.94;4995453;28;20049;-88
2023/08/20 02:41:41;;;;;;;14.07;9.30;;;;;;;26.39;100.00;96585.25;5001178;28;20057;-88
2023/08/20 02:44:09;;;;;;;11.82;8.98;;;;;;;26.46;100.00;96588.56;5004799;28;20049;-88
2023/08/20 02:46:35;;;;;;;14.13;8.88;;;;;;;26.35;100.00;96590.34;4992298;28;20049;-86
2023/08/20 02:49:01;;;;;;;13.68;9.23;;;;;;;26.24;100.00;96599.38;5021457;28;20018;-88
2023/08/20 02:51:27;;;;;;;11.27;9.40;;;;;;;26.19;100.00;96585.81;5008735;28;20432;-88
2023/08/20 02:53:53;;;;;;;11.82;8.85;;;;;;;26.29;100.00;96591.34;4996152;28;20018;-88
2023/08/20 02:56:18;;;;;;;13.35;9.60;;;;;;;26.21;100.00;96587.19;5016533;28;20029;-88
2023/08/20 02:58:44;;;;;;;13.10;9.70;;;;;;;25.97;100.00;96585.81;4996447;28;20469;-88
2023/08/20 03:01:24;;;;;;;12.23;9.90;;;;;;;26.00;100.00;96578.03;4998923;28;20037;-88
2023/08/20 03:03:51;;;;;;;12.38;10.00;;;;;;;26.02;100.00;96585.84;5008978;28;20408;-87
2023/08/20 03:06:16;;;;;;;11.55;9.57;;;;;;;26.01;100.00;96585.06;5014805;28;20022;-88
2023/08/20 03:08:42;;;;;;;13.95;9.73;;;;;;;26.03;100.00;96585.63;4995078;28;20025;-88
2023/08/20 03:11:08;;;;;;;11.32;10.10;;;;;;;25.91;100.00;96582.22;4994828;28;20038;-88
2023/08/20 03:13:33;;;;;;;12.13;10.35;;;;;;;26.15;100.00;96577.41;4998835;28;20052;-88
2023/08/20 03:15:59;;;;;;;14.50;9.82;;;;;;;26.01;100.00;96573.47;5006468;28;20476;-88
2023/08/20 03:18:25;;;;;;;13.13;10.18;;;;;;;26.03;100.00;96577.53;4989115;28;20052;-88
2023/08/20 03:20:50;;;;;;;17.02;10.27;;;;;;;26.07;100.00;96581.38;5010037;28;20113;-87
2023/08/20 03:23:16;;;;;;;11.38;9.55;;;;;;;26.06;100.00;96584.31;4993379;28;20048;-87
2023/08/20 03:25:41;;;;;;;13.90;9.60;;;;;;;25.89;100.00;96587.06;5014500;28;20025;-88
2023/08/20 03:28:07;;;;;;;14.98;10.65;;;;;;;25.73;100.00;96582.47;4992848;28;20435;-88
2023/08/20 03:30:33;;;;;;;11.75;10.55;;;;;;;25.45;100.00;96592.25;4997820;28;20026;-88
2023/08/20 03:32:59;;;;;;;14.55;10.32;;;;;;;25.53;100.00;96586.47;4992970;28;20054;-88
2023/08/20 03:35:25;;;;;;;14.80;10.82;;;;;;;25.56;100.00;96583.31;4995581;28;20022;-87
2023/08/20 03:37:50;;;;;;;14.07;10.85;;;;;;;25.38;100.00;96580.84;5001660;28;20022;-88
2023/08/20 03:40:18;;;;;;;13.65;10.65;;;;;;;25.26;100.00;96574.75;4992572;28;20052;-87
2023/08/20 03:42:43;;;;;;;13.43;11.20;;;;;;;25.24;100.00;96579.53;4992481;28;20137;-88
2023/08/20 03:45:09;;;;;;;12.80;10.32;;;;;;;25.21;100.00;96575.44;4995881;28;20025;-87
2023/08/20 03:47:36;;;;;;;14.18;10.35;;;;;;;25.13;100.00;96581.25;5004719;28;20034;-88
2023/08/20 03:50:02;;;;;;;16.00;11.27;;;;;;;25.11;100.00;96575.25;4997146;28;20476;-88
2023/08/20 03:52:28;;;;;;;13.38;10.90;;;;;;;25.22;100.00;96570.88;5015347;28;20032;-88
2023/08/20 03:54:53;;;;;;;14.65;10.82;;;;;;;25.26;100.00;96577.44;5006864;28;20021;-88
2023/08/20 03:57:19;;;;;;;14.02;11.55;;;;;;;25.32;100.00;96581.84;5002662;28;20037;-88
2023/08/20 03:59:45;;;;;;;13.82;10.60;;;;;;;25.27;100.00;96573.66;4997203;28;20479;-88
2023/08/20 04:02:13;;;;;;;15.07;11.50;;;;;;;25.26;100.00;96580.94;5005786;28;20416;-88
2023/08/20 04:04:39;;;;;;;12.93;11.07;;;;;;;25.30;100.00;96568.63;5000920;28;20484;-88
2023/08/20 04:07:04;;;;;;;12.75;10.50;;;;;;;25.28;100.00;96575.28;4996561;28;20076;-88
2023/08/20 04:09:32;;;;;;;15.70;10.82;;;;;;;25.17;100.00;96568.94;5001992;28;20033;-88
2023/08/20 04:12:00;;;;;;;15.18;11.25;;;;;;;25.16;100.00;96575.38;5024911;28;20452;-88
2023/08/20 04:14:26;;;;;;;13.43;10.15;;;;;;;25.17;100.00;96571.63;5028729;28;20100;-88
2023/08/20 04:16:52;;;;;;;14.90;11.40;;;;;;;25.31;100.00;96574.81;5015413;28;20037;-88
2023/08/20 04:19:17;;;;;;;15.50;12.30;;;;;;;25.29;100.00;96577.75;5018301;28;20090;-87
2023/08/20 04:21:43;;;;;;;12.93;10.70;;;;;;;25.04;100.00;96580.78;5000063;28;20029;-87
2023/08/20 04:24:09;;;;;;;14.73;11.68;;;;;;;25.49;100.00;96582.66;4995949;28;20034;-88
2023/08/20 04:30:15;;;;;;;14.07;10.57;;;;;;;25.47;100.00;96586.66;5015777;28;20068;-88
2023/08/20 04:32:42;;;;;;;14.15;11.48;;;;;;;25.21;100.00;96590.78;5007593;28;20080;-87
2023/08/20 04:35:08;;;;;;;12.65;10.95;;;;;;;25.19;100.00;96593.75;5020260;28;20033;-88
2023/08/20 04:37:34;;;;;;;13.90;10.70;;;;;;;25.33;100.00;96599.63;4998340;28;20116;-87
2023/08/20 04:39:59;;;;;;;16.05;11.10;;;;;;;25.17;100.00;96606.63;5012798;28;20034;-88
2023/08/20 04:42:25;;;;;;;18.45;11.25;;;;;;;25.31;100.00;96602.53;5006517;28;20022;-87
2023/08/20 04:44:51;;;;;;;15.07;11.35;;;;;;;25.35;100.00;96611.78;5004059;28;20113;-88
2023/08/20 04:47:23;;;;;;;13.55;11.38;;;;;;;25.46;100.00;96614.66;4994382;28;20117;-87
2023/08/20 04:49:48;;;;;;;16.33;10.75;;;;;;;25.36;100.00;96615.28;5005168;28;20037;-87
2023/08/20 04:52:14;;;;;;;13.63;11.68;;;;;;;25.26;100.00;96615.13;4995278;28;20026;-88
2023/08/20 04:54:39;;;;;;;12.40;10.57;;;;;;;25.23;100.00;96611.03;4983557;28;20030;-88
2023/08/20 04:57:05;;;;;;;19.42;11.38;;;;;;;25.41;100.00;96615.34;4995836;28;20026;-87
2023/08/20 04:59:30;;;;;;;13.90;11.68;;;;;;;25.54;100.00;96620.41;4996951;28;20708;-87
2023/08/20 05:02:02;;;;;;;15.38;11.93;;;;;;;25.61;100.00;96618.38;5018936;28;20109;-88
2023/08/20 05:04:40;;;;;;;15.57;11.93;;;;;;;25.58;100.00;96624.25;4997800;28;20079;-87
2023/08/20 05:07:05;;;;;;;17.45;11.18;;;;;;;25.69;100.00;96624.41;5016432;28;20024;-88
2023/08/20 05:09:34;;;;;;;12.70;10.20;;;;;;;25.61;100.00;96621.06;5028847;28;20021;-88
2023/08/20 05:12:00;;;;;;;13.15;11.30;;;;;;;25.59;100.00;96619.72;5017544;28;20017;-88
2023/08/20 05:14:26;;;;;;;14.73;11.23;;;;;;;25.32;100.00;96625.72;5030874;28;20040;-88
2023/08/20 05:16:52;;;;;;;15.15;11.60;;;;;;;25.57;100.00;96616.44;5009653;28;20088;-88
2023/08/20 05:19:17;;;;;;;14.95;10.52;;;;;;;25.51;100.00;96626.28;4999847;28;20059;-88
2023/08/20 05:21:43;;;;;;;13.50;11.05;;;;;;;25.26;100.00;96617.81;5015794;28;20044;-88
2023/08/20 05:24:09;;;;;;;12.40;11.10;;;;;;;25.16;100.00;96627.34;5018838;28;20029;-88
2023/08/20 05:26:34;;;;;;;14.02;10.25;;;;;;;25.46;100.00;96617.34;4996371;28;20026;-87
2023/08/20 05:29:00;;;;;;;15.73;10.20;;;;;;;25.59;100.00;96619.72;4999372;28;20029;-88
2023/08/20 05:31:26;;;;;;;13.15;10.60;;;;;;;25.70;100.00;96615.28;5012258;28;20022;-88
2023/08/20 05:33:52;;;;;;;12.23;10.13;;;;;;;26.07;100.00;96619.09;5014582;28;20029;-88
2023/08/20 05:36:18;;;;;;;12.60;10.57;;;;;;;26.50;100.00;96612.16;5014114;28;20029;-88
2023/08/20 05:38:46;;;;;;;17.00;11.60;;;;;;;26.75;100.00;96619.72;5010502;28;20116;-88
2023/08/20 05:41:25;;;;;;;16.15;10.73;;;;;;;26.82;100.00;96618.69;5017160;28;20545;-87
2023/08/20 05:43:50;;;;;;;13.15;11.43;;;;;;;26.88;100.00;96610.41;5014454;28;20022;-88
2023/08/20 05:46:16;;;;;;;13.35;10.73;;;;;;;26.91;100.00;96609.09;4999957;28;20072;-88
2023/08/20 05:48:42;;;;;;;12.23;9.82;;;;;;;27.36;100.00;96597.13;5010501;28;20018;-88
2023/08/20 05:51:09;;;;;;;12.82;10.20;;;;;;;27.26;100.00;96605.94;5013757;28;20060;-88
2023/08/20 05:53:38;;;;;;;12.15;9.68;;;;;;;27.71;100.00;96596.59;5010669;28;20041;-88
2023/08/20 05:56:05;;;;;;;11.25;9.52;;;;;;;28.20;100.00;96599.06;5013492;28;20480;-88
2023/08/20 05:58:30;;;;;;;13.20;9.85;;;;;;;28.26;100.00;96603.44;5013189;28;20033;-88
2023/08/20 06:00:56;;;;;;;13.30;9.75;;;;;;;28.48;100.00;96599.78;5011807;28;20034;-87
2023/08/20 06:03:22;;;;;;;13.07;10.13;;;;;;;28.36;100.00;96598.06;5017102;28;20480;-88
2023/08/20 06:05:59;;;;;;;14.50;9.73;;;;;;;28.50;100.00;96597.63;5000149;28;20026;-87
2023/08/20 06:08:24;;;;;;;12.35;9.50;;;;;;;28.70;100.00;96603.09;5001697;28;20053;-88
2023/08/20 06:10:50;;;;;;;11.80;8.85;;;;;;;29.08;100.00;96603.78;5000274;28;20014;-87
2023/08/20 06:13:16;;;;;;;12.38;9.50;;;;;;;29.02;100.00;96605.66;5015892;28;20033;-86
2023/08/20 06:15:42;;;;;;;11.80;9.43;;;;;;;29.79;100.00;96609.25;5012881;28;20034;-87
2023/08/20 06:18:07;;;;;;;11.60;9.18;;;;;;;30.36;100.00;96611.88;5006105;28;20079;-87
2023/08/20 06:20:33;;;;;;;13.90;9.05;;;;;;;30.34;100.00;96612.13;5005874;28;20502;-86
2023/08/20 06:22:58;;;;;;;12.70;9.68;;;;;;;30.39;100.00;96622.19;5001536;28;20029;-87
2023/08/20 06:25:24;;;;;;;12.00;8.68;;;;;;;31.22;100.00;96624.22;4994934;28;20026;-87
2023/08/20 06:27:49;;;;;;;10.35;6.82;;;;;;;31.14;100.00;96628.34;4995613;28;20023;-86
2023/08/20 06:30:15;;;;;;;9.18;7.60;;;;;;;30.64;100.00;96638.34;4991276;28;20506;-86
2023/08/20 06:32:41;;;;;;;15.55;8.63;;;;;;;31.08;100.00;96639.53;5004529;28;20050;-86
2023/08/20 06:35:09;;;;;;;15.50;9.05;;;;;;;31.08;100.00;96640.34;4991368;28;20038;-87
2023/08/20 06:37:34;;;;;;;12.30;9.07;;;;;;;30.77;100.00;96643.22;5004537;28;20017;-87
2023/08/20 06:40:00;;;;;;;11.82;10.50;;;;;;;30.75;100.00;96648.09;5009570;28;20049;-86
2023/08/20 06:42:25;;;;;;;13.77;9.60;;;;;;;30.76;100.00;96652.47;4989087;28;20117;-87
2023/08/20 06:44:51;;;;;;;15.88;9.90;;;;;;;31.39;100.00;96653.78;5005830;28;20029;-86
2023/08/20 06:47:16;;;;;;;11.00;9.52;;;;;;;31.17;100.00;96654.16;5008693;28;20026;-86
2023/08/20 06:49:42;;;;;;;12.95;10.93;;;;;;;31.32;100.00;96642.38;5018576;28;20028;-86
2023/08/20 06:52:07;;;;;;;12.30;9.40;;;;;;;31.94;100.00;96640.84;5000464;28;20070;-87
2023/08/20 06:54:33;;;;;;;14.60;10.25;;;;;;;31.54;100.00;96633.81;5010597;28;20485;-86
2023/08/20 06:56:59;;;;;;;11.80;10.20;;;;;;;31.61;100.00;96632.41;5003810;28;20101;-86
2023/08/20 06:59:24;;;;;;;12.63;10.93;;;;;;;31.46;100.00;96632.53;5011042;28;20377;-87
2023/08/20 07:01:50;;;;;;;17.45;9.93;;;;;;;31.52;100.00;96631.38;5001332;28;20044;-86
2023/08/20 07:04:15;;;;;;;16.55;11.93;;;;;;;31.63;100.00;96630.22;5012894;28;20026;-86
2023/08/20 07:06:41;;;;;;;18.63;10.65;;;;;;;31.78;100.00;96637.41;4983304;28;20033;-86
2023/08/20 07:09:07;;;;;;;12.40;11.00;;;;;;;32.97;100.00;96629.69;4999525;28;20033;-86
2023/08/20 07:11:32;;;;;;;17.63;10.95;;;;;;;33.72;100.00;96632.38;5010597;28;20037;-86
2023/08/20 07:13:58;;;;;;;16.08;10.93;;;;;;;33.28;100.00;96639.03;5018416;28;20037;-86
2023/08/20 07:16:23;;;;;;;12.80;10.70;;;;;;;33.58;100.00;96638.91;4996911;28;20460;-86
2023/08/20 07:18:49;;;;;;;12.75;11.13;;;;;;;33.51;100.00;96645.53;5008616;28;20029;-86
2023/08/20 07:21:15;;;;;;;13.02;10.30;;;;;;;33.79;100.00;96645.63;4993312;28;20034;-87
2023/08/20 07:23:40;;;;;;;15.88;10.95;;;;;;;34.12;100.00;96645.66;4991365;28;20026;-87
2023/08/20 07:26:08;;;;;;;15.27;10.18;;;;;;;34.24;100.00;96645.97;5004792;28;20657;-87
2023/08/20 07:31:18;;;;;;;10.82;9.57;;;;;;;34.86;100.00;96660.06;5009834;28;20322;-86
2023/08/20 07:33:48;;;;;;;11.75;9.60;;;;;;;35.19;100.00;96660.75;5004806;28;20029;-87
2023/08/20 07:36:14;;;;;;;11.70;10.38;;;;;;;35.36;100.00;96665.56;5009164;28;20491;-87
2023/08/20 07:38:42;;;;;;;19.42;12.63;;;;;;;35.09;99.68;96660.16;5002029;28;20125;-87
2023/08/20 07:41:08;;;;;;;11.95;10.55;;;;;;;35.37;98.22;96661.69;5002383;28;20125;-86
2023/08/20 07:43:34;;;;;;;13.30;10.48;;;;;;;36.22;88.77;96659.16;5012823;28;20036;-87
2023/08/20 07:45:59;;;;;;;12.63;9.40;;;;;;;36.17;88.52;96662.00;5020667;28;20022;-87
2023/08/20 07:48:25;;;;;;;12.48;9.77;;;;;;;36.51;86.55;96664.13;4996033;28;20033;-86
2023/08/20 07:50:50;;;;;;;11.15;9.68;;;;;;;36.88;79.05;96661.19;4995454;28;20033;-86
2023/08/20 07:53:16;;;;;;;11.23;8.65;;;;;;;36.98;80.61;96663.66;4994433;28;20030;-86
2023/08/20 07:55:42;;;;;;;9.75;8.77;;;;;;;37.09;80.79;96665.00;5003574;28;20033;-86
2023/08/20 07:58:10;;;;;;;13.00;8.73;;;;;;;36.73;81.33;96667.94;5005877;28;20025;-85
2023/08/20 08:00:36;;;;;;;11.70;9.32;;;;;;;37.89;73.68;96664.69;5014688;28;20101;-85
2023/08/20 08:03:02;;;;;;;12.18;9.13;;;;;;;37.60;75.88;96671.66;5017192;28;20642;-86
2023/08/20 08:05:28;;;;;;;12.25;9.70;;;;;;;36.48;81.46;96666.66;4997630;28;20028;-86
2023/08/20 08:07:54;;;;;;;11.15;9.07;;;;;;;37.40;75.53;96669.53;5013185;28;20026;-86
2023/08/20 08:10:35;;;;;;;10.85;8.75;;;;;;;37.73;73.49;96669.88;5011765;28;20084;-86
2023/08/20 08:13:01;;;;;;;12.05;8.43;;;;;;;37.57;73.53;96677.78;5022017;28;20052;-85
2023/08/20 08:15:26;;;;;;;12.82;8.70;;;;;;;37.12;80.90;96680.78;5002735;28;20033;-86
2023/08/20 08:17:52;;;;;;;8.93;7.68;;;;;;;37.48;71.57;96676.97;4998236;28;20365;-86
2023/08/20 08:20:18;;;;;;;11.52;8.38;;;;;;;38.15;63.73;96679.19;5016345;28;20037;-84
2023/08/20 08:22:43;;;;;;;11.75;7.97;;;;;;;38.41;62.99;96678.34;5027326;28;20026;-85
2023/08/20 08:25:09;;;;;;;12.18;7.45;;;;;;;39.51;58.44;96672.94;5007940;28;20696;-86
2023/08/20 08:27:34;;;;;;;10.65;7.18;;;;;;;38.88;58.17;96683.84;4997103;28;20022;-86
2023/08/20 08:30:01;;;;;;;10.27;7.47;;;;;;;38.11;59.80;96683.75;5012382;28;20033;-86
2023/08/20 08:32:26;;;;;;;10.63;7.45;;;;;;;38.24;63.02;96683.88;5020846;28;20477;-84
2023/08/20 08:34:52;;;;;;;11.45;7.75;;;;;;;38.13;65.01;96684.22;5012896;28;20032;-85
2023/08/20 08:37:17;;;;;;;11.60;8.02;;;;;;;38.37;59.25;96685.66;5012609;28;20423;-85
2023/08/20 08:39:43;;;;;;;10.30;6.75;;;;;;;38.61;62.68;96687.81;5002712;28;20089;-85
2023/08/20 08:42:11;;;;;;;9.73;7.75;;;;;;;38.19;62.74;96688.38;5000510;28;20431;-85
2023/08/20 08:44:41;;;;;;;12.25;7.35;;;;;;;38.74;61.93;96688.75;5002333;28;20022;-85
2023/08/20 08:47:07;;;;;;;9.95;6.45;;;;;;;39.71;55.30;96687.88;5019786;28;20029;-86
2023/08/20 08:49:36;;;;;;;9.15;6.80;;;;;;;39.78;54.19;96690.88;4993679;28;20046;-86
2023/08/20 08:52:04;;;;;;;9.48;6.32;;;;;;;40.09;53.28;96692.34;4996024;28;20484;-85
2023/08/20 08:54:32;;;;;;;11.82;6.90;;;;;;;39.93;53.05;96690.22;5000137;28;20034;-86
2023/08/20 08:56:57;;;;;;;12.05;6.13;;;;;;;40.12;48.54;96691.69;5009323;28;20109;-86
2023/08/20 08:59:23;;;;;;;9.18;6.15;;;;;;;40.50;48.67;96692.25;5017260;28;20030;-86
2023/08/20 09:01:49;;;;;;;8.02;5.95;;;;;;;40.87;46.93;96697.00;5014781;28;20032;-85
2023/08/20 09:04:14;;;;;;;9.05;5.88;;;;;;;41.07;47.49;96698.88;5007479;28;20038;-85
2023/08/20 09:06:48;;;;;;;9.93;5.97;;;;;;;41.37;44.66;96693.88;5001032;28;20029;-85
2023/08/20 09:09:14;;;;;;;12.70;5.93;;;;;;;42.04;41.58;96690.72;5009544;28;20071;-85
2023/08/20 09:11:40;;;;;;;9.20;6.55;;;;;;;41.08;47.45;96689.44;5004931;28;20053;-85
2023/08/20 09:14:28;;;;;;;7.95;6.25;;;;;;;41.45;46.72;96695.75;5000686;28;20068;-85
2023/08/20 09:17:03;;;;;;;8.27;6.03;;;;;;;40.58;46.68;96693.34;5022729;28;20051;-85
2023/08/20 09:19:30;;;;;;;9.90;6.35;;;;;;;40.54;47.66;96695.13;5009300;28;20037;-85
2023/08/20 09:21:58;;;;;;;9.13;5.28;;;;;;;40.93;45.33;96693.69;5013155;28;20021;-84
2023/08/20 09:24:42;;;;;;;8.05;5.70;;;;;;;41.28;45.00;96701.47;4998490;28;20057;-85
2023/08/20 09:27:08;;;;;;;10.10;6.43;;;;;;;40.84;47.54;96698.50;4998240;28;20068;-85
2023/08/20 09:33:14;;;;;;;12.27;5.97;;;;;;;40.65;47.76;96701.03;5011238;28;20048;-85
2023/08/20 09:35:50;;;;;;;9.48;5.80;;;;;;;41.43;42.28;96697.22;5016340;28;20026;-85
2023/08/20 09:38:22;;;;;;;8.55;5.90;;;;;;;41.14;44.17;96698.28;5015651;28;20052;-85
2023/08/20 09:40:48;;;;;;;;;;;;;;;40.25;45.54;96698.88;5007170;28;20034;-85
2023/08/20 09:43:16;;;;;;;7.20;5.50;;;;;;;42.06;43.22;96691.97;4995758;28;19920;-85
2023/08/20 09:45:43;;;;;;;10.45;5.00;;;;;;;42.19;43.39;96702.97;4997718;28;20029;-85
2023/08/20 09:48:10;;;;;;;9.02;5.65;;;;;;;42.56;41.38;96700.81;5011197;28;20036;-85
2023/08/20 09:50:39;;;;;;;8.10;5.82;;;;;;;40.99;44.71;96706.09;5012936;28;20022;-85
2023/08/20 09:53:26;;;;;;;9.13;5.88;;;;;;;41.54;41.48;96698.34;4995031;28;20073;-85
2023/08/20 09:55:52;;;;;;;9.63;5.88;;;;;;;41.72;42.43;96703.59;4989483;28;20025;-85
2023/08/20 09:58:25;;;;;;;7.78;5.18;;;;;;;42.25;41.21;96698.78;5014584;28;20685;-85
2023/08/20 10:00:51;;;;;;;7.15;5.03;;;;;;;42.33;40.12;96692.34;5015530;28;20034;-85
2023/08/20 10:03:20;;;;;;;9.35;5.30;;;;;;;42.52;40.71;96697.16;5023396;28;20032;-86
2023/08/20 10:05:50;;;;;;;10.35;5.78;;;;;;;41.27;43.23;96697.13;5006329;28;20029;-86
2023/08/20 10:08:17;;;;;;;9.70;5.43;;;;;;;40.93;43.49;96707.47;4998270;28;20369;-86
2023/08/20 10:10:42;;;;;;;7.53;5.57;;;;;;;40.99;42.79;96703.34;5003489;28;20026;-86
2023/08/20 10:13:08;;;;;;;12.38;5.60;;;;;;;41.91;42.79;96695.50;5004808;28;20353;-86
2023/08/20 10:15:36;;;;;;;10.65;5.25;;;;;;;42.11;43.16;96697.25;5023477;28;20112;-86
2023/08/20 10:18:02;;;;;;;6.95;4.72;;;;;;;43.07;41.03;96696.16;5010832;28;20056;-85
2023/08/20 10:20:31;;;;;;;10.63;5.57;;;;;;;42.91;39.67;96700.91;5015613;28;20424;-86
2023/08/20 10:23:02;;;;;;;9.25;5.72;;;;;;;42.71;40.30;96702.81;4997053;28;20034;-86
2023/08/20 10:25:29;;;;;;;10.95;4.88;;;;;;;42.28;42.06;96695.34;5014010;28;20022;-87
2023/08/20 10:28:11;;;;;;;7.45;4.82;;;;;;;42.60;40.10;96702.50;5014926;28;20056;-86
2023/08/20 10:30:37;;;;;;;7.95;5.13;;;;;;;43.07;39.36;96698.94;4999515;28;20578;-85
2023/08/20 10:33:03;;;;;;;6.88;5.15;;;;;;;42.16;41.47;96698.97;5009023;28;20013;-86
2023/08/20 10:36:28;;;;;;;9.98;5.28;;;;;;;42.41;38.95;96694.09;5029920;28;20029;-85
2023/08/20 10:39:03;;;;;;;9.38;5.47;;;;;;;42.69;39.46;96699.59;4996164;28;20029;-86
2023/08/20 10:41:29;;;;;;;12.00;5.63;;;;;;;41.89;40.52;96689.53;4991803;28;20072;-86
2023/08/20 10:44:00;;;;;;;9.02;6.15;;;;;;;41.20;42.76;96694.16;5016287;28;21277;-86
2023/08/20 10:46:34;;;;;;;;;;;;;;;41.76;44.52;96696.22;5018571;28;20139;-86
2023/08/20 10:49:02;;;;;;;14.05;5.75;;;;;;;42.16;40.36;96693.44;5010573;28;19909;-86
2023/08/20 10:51:39;;;;;;;7.25;5.55;;;;;;;42.97;41.24;96690.38;5009210;28;20030;-86
2023/08/20 10:54:08;;;;;;;9.18;5.38;;;;;;;42.87;39.52;96690.94;4985250;28;20033;-86
2023/08/20 10:56:58;;;;;;;9.40;5.15;;;;;;;42.17;40.52;96688.72;5017024;28;20030;-86
2023/08/20 10:59:30;;;;;;;10.32;5.43;;;;;;;43.39;37.31;96681.47;5011306;28;20118;-86
2023/08/20 11:01:59;;;;;;;7.35;5.43;;;;;;;42.13;38.43;96681.13;5000493;28;20077;-86
2023/08/20 11:04:32;;;;;;;9.73;5.30;;;;;;;42.51;37.87;96687.25;5005209;28;20029;-86
2023/08/20 11:06:58;;;;;;;8.85;5.03;;;;;;;42.78;36.76;96688.34;5005944;28;20022;-87
2023/08/20 11:09:25;;;;;;;8.60;5.40;;;;;;;42.01;38.89;96685.91;4993851;28;20070;-86
2023/08/20 11:11:52;;;;;;;7.07;4.68;;;;;;;43.53;37.38;96676.25;4987704;28;20026;-87
2023/08/20 11:14:19;;;;;;;7.13;4.93;;;;;;;42.17;39.35;96678.44;5021989;28;20025;-86
2023/08/20 11:16:46;;;;;;;11.65;6.72;;;;;;;42.63;39.78;96675.31;5017958;28;20033;-86
2023/08/20 11:19:23;;;;;;;9.02;6.63;;;;;;;41.98;39.53;96675.56;5014755;28;20029;-85
2023/08/20 11:21:49;;;;;;;10.40;5.03;;;;;;;41.97;39.07;96668.44;4995644;28;20038;-86
2023/08/20 11:24:16;;;;;;;7.68;5.50;;;;;;;43.54;36.45;96666.81;5008733;28;20025;-86
2023/08/20 11:26:42;;;;;;;8.50;5.28;;;;;;;42.67;37.95;96667.91;4992036;28;20033;-86
2023/08/20 11:29:09;;;;;;;8.85;5.85;;;;;;;43.17;37.61;96674.66;5003006;28;20033;-87
2023/08/20 11:31:38;;;;;;;9.55;5.18;;;;;;;42.88;38.54;96670.41;4991919;28;20026;-87